Time;durP1;ratioP1;P1;durP2;ratioP2;P2;SDS_P1;SDS_P2;PMS_P1;PMS_P2;Temp;Humidity;BMP_temperature;BMP_pressure;BME280_temperature;BME280_humidity;BME280_pressure;Samples;Min_cycle;Max_cycle;Signal;HPM_P1;HPM_P2
2024/01/13 00:01:52;;;;;;;;;;;4.00;99.90;;;;;;5083651;28;19923;-76
2024/01/13 00:04:18;;;;;;;;;;;3.90;99.90;;;;;;5066351;28;20438;-76
2024/01/13 00:06:43;;;;;;;;;;;3.90;99.90;;;;;;5085152;28;19931;-76
2024/01/13 00:09:10;;;;;;;;;;;3.90;99.90;;;;;;5085774;28;19936;-77
2024/01/13 00:11:36;;;;;;;;;;;3.90;99.90;;;;;;5098136;28;19971;-76
2024/01/13 00:14:02;;;;;;;;;;;3.90;99.90;;;;;;5099957;28;20016;-77
2024/01/13 00:16:27;;;;;;;;;;;3.90;99.90;;;;;;5084028;27;20508;-76
2024/01/13 00:18:53;;;;;;;;;;;3.90;99.90;;;;;;5085676;28;19928;-77
2024/01/13 00:21:19;;;;;;;;;;;3.90;99.90;;;;;;5084857;28;19966;-76
2024/01/13 00:23:44;;;;;;;;;;;4.00;99.90;;;;;;5069914;27;20010;-75
2024/01/13 00:26:11;;;;;;;;;;;3.90;99.90;;;;;;5083745;28;19927;-76
2024/01/13 00:28:37;;;;;;;;;;;4.00;99.90;;;;;;5086511;28;19971;-77
2024/01/13 00:31:06;;;;;;;;;;;3.90;99.90;;;;;;5084524;28;20550;-77
2024/01/13 00:33:31;;;;;;;;;;;4.00;99.90;;;;;;5084710;28;19932;-76
2024/01/13 00:35:57;;;;;;;;;;;3.90;99.90;;;;;;5084412;28;19963;-77
2024/01/13 00:38:23;;;;;;;;;;;3.90;99.90;;;;;;5083695;28;19974;-76
2024/01/13 00:40:49;;;;;;;;;;;3.90;99.90;;;;;;5080944;28;20392;-77
2024/01/13 00:43:14;;;;;;;;;;;4.00;99.90;;;;;;5103443;28;20080;-76
2024/01/13 00:45:40;;;;;;;;;;;4.10;99.90;;;;;;5082695;28;19924;-77
2024/01/13 00:48:06;;;;;;;;;;;4.00;99.90;;;;;;5065802;28;19939;-77
2024/01/13 00:50:33;;;;;;;;;;;4.00;99.90;;;;;;5082227;28;19949;-76
2024/01/13 00:52:58;;;;;;;;;;;4.00;99.90;;;;;;5101096;28;20381;-77
2024/01/13 00:55:24;;;;;;;;;;;4.00;99.90;;;;;;5080468;28;19935;-76
2024/01/13 00:57:49;;;;;;;;;;;4.00;99.90;;;;;;5101853;28;19931;-77
2024/01/13 01:00:18;;;;;;;;;;;4.00;99.90;;;;;;5100576;28;19938;-76
2024/01/13 01:02:45;;;;;;;;;;;4.10;99.90;;;;;;5083441;28;20290;-77
2024/01/13 01:05:12;;;;;;;;;;;4.00;99.90;;;;;;5084087;28;19932;-77
2024/01/13 01:07:37;;;;;;;;;;;4.00;99.90;;;;;;5083837;28;19928;-76
2024/01/13 01:10:03;;;;;;;;;;;4.00;99.90;;;;;;5066312;28;19931;-77
2024/01/13 01:12:29;;;;;;;;;;;4.00;99.90;;;;;;5083267;28;20018;-77
2024/01/13 01:14:54;;;;;;;;;;;4.00;99.90;;;;;;5083339;28;19924;-77
2024/01/13 01:17:20;;;;;;;;;;;4.00;99.90;;;;;;5063383;28;19924;-76
2024/01/13 01:19:45;;;;;;;;;;;4.00;99.90;;;;;;5068089;28;20298;-77
2024/01/13 01:22:11;;;;;;;;;;;3.90;99.90;;;;;;5066903;28;20039;-77
2024/01/13 01:24:37;;;;;;;;;;;4.00;99.90;;;;;;5084825;28;19938;-76
2024/01/13 01:27:02;;;;;;;;;;;4.00;99.90;;;;;;5097299;28;19928;-77
2024/01/13 01:29:28;;;;;;;;;;;3.90;99.90;;;;;;5082988;28;19928;-77
2024/01/13 01:31:53;;;;;;;;;;;4.00;99.90;;;;;;5082124;28;19920;-77
2024/01/13 01:34:19;;;;;;;;;;;3.90;99.90;;;;;;5066844;28;19932;-76
2024/01/13 01:36:45;;;;;;;;;;;3.90;99.90;;;;;;5082937;28;19924;-77
2024/01/13 01:39:10;;;;;;;;;;;3.90;99.90;;;;;;5081797;28;19932;-76
2024/01/13 01:41:36;;;;;;;;;;;4.30;99.90;;;;;;5082247;28;19924;-77
2024/01/13 01:44:03;;;;;;;;;;;4.00;99.90;;;;;;5082596;28;19939;-76
2024/01/13 01:46:33;;;;;;;;;;;3.90;99.90;;;;;;5070901;28;20409;-76
2024/01/13 01:48:59;;;;;;;;;;;3.90;99.90;;;;;;5083703;28;20446;-77
2024/01/13 01:51:25;;;;;;;;;;;3.80;99.90;;;;;;5069363;27;19932;-77
2024/01/13 01:53:51;;;;;;;;;;;3.90;99.90;;;;;;5102170;27;19974;-77
2024/01/13 01:56:18;;;;;;;;;;;3.90;99.90;;;;;;5085921;28;19959;-77
2024/01/13 01:58:46;;;;;;;;;;;3.90;99.90;;;;;;5086201;28;20374;-77
2024/01/13 02:01:12;;;;;;;;;;;3.90;99.90;;;;;;5104741;27;20800;-77
2024/01/13 02:03:41;;;;;;;;;;;3.90;99.90;;;;;;5085644;28;19993;-76
2024/01/13 02:06:06;;;;;;;;;;;3.90;99.90;;;;;;5085265;27;19936;-77
2024/01/13 02:08:32;;;;;;;;;;;3.90;99.90;;;;;;5083729;28;19924;-77
2024/01/13 02:10:58;;;;;;;;;;;3.90;99.90;;;;;;5084653;28;20585;-77
2024/01/13 02:13:24;;;;;;;;;;;3.80;99.90;;;;;;5085594;28;19950;-77
2024/01/13 02:15:50;;;;;;;;;;;3.80;99.90;;;;;;5086935;28;20293;-76
2024/01/13 02:18:16;;;;;;;;;;;4.30;99.90;;;;;;5085071;28;19928;-76
2024/01/13 02:20:41;;;;;;;;;;;3.80;99.90;;;;;;5086528;28;19997;-77
2024/01/13 02:23:13;;;;;;;;;;;3.80;99.90;;;;;;5103194;27;19949;-77
2024/01/13 02:25:38;;;;;;;;;;;3.80;99.90;;;;;;5085084;28;20430;-76
2024/01/13 02:28:04;;;;;;;;;;;3.80;99.90;;;;;;5086523;28;19928;-77
2024/01/13 02:30:30;;;;;;;;;;;3.80;99.90;;;;;;5067224;28;19928;-76
2024/01/13 02:32:55;;;;;;;;;;;3.80;99.90;;;;;;5050569;28;20704;-77
2024/01/13 02:35:21;;;;;;;;;;;3.80;99.90;;;;;;5069985;28;20018;-77
2024/01/13 02:37:46;;;;;;;;;;;3.80;99.90;;;;;;5087007;28;19924;-77
2024/01/13 02:40:15;;;;;;;;;;;3.80;99.90;;;;;;5102760;28;20010;-76
2024/01/13 02:42:41;;;;;;;;;;;3.90;99.90;;;;;;5066784;28;19972;-76
2024/01/13 02:45:07;;;;;;;;;;;3.80;99.90;;;;;;5067941;28;20238;-77
2024/01/13 02:47:43;;;;;;;;;;;3.80;99.90;;;;;;5067123;27;20052;-78
2024/01/13 02:50:09;;;;;;;;;;;3.80;99.90;;;;;;5086032;28;20411;-76
2024/01/13 02:52:35;;;;;;;;;;;3.80;99.90;;;;;;5100380;27;19927;-76
2024/01/13 02:55:01;;;;;;;;;;;3.90;99.90;;;;;;5103097;28;19941;-76
2024/01/13 02:57:26;;;;;;;;;;;4.20;99.90;;;;;;5068016;27;19975;-76
2024/01/13 02:59:52;;;;;;;;;;;3.80;99.90;;;;;;5055787;28;19934;-76
2024/01/13 03:02:18;;;;;;;;;;;3.90;99.90;;;;;;5082894;28;19967;-77
2024/01/13 03:04:43;;;;;;;;;;;4.00;99.90;;;;;;5084254;28;20396;-76
2024/01/13 03:07:09;;;;;;;;;;;4.20;99.90;;;;;;5085157;28;20518;-76
2024/01/13 03:09:35;;;;;;;;;;;3.90;99.90;;;;;;5085327;28;20264;-76
2024/01/13 03:12:00;;;;;;;;;;;3.80;99.90;;;;;;5083553;28;19963;-76
2024/01/13 03:14:26;;;;;;;;;;;3.80;99.90;;;;;;5083224;28;19928;-76
2024/01/13 03:16:57;;;;;;;;;;;3.80;99.90;;;;;;5086096;28;19970;-76
2024/01/13 03:19:28;;;;;;;;;;;3.80;99.90;;;;;;5103729;27;19972;-77
2024/01/13 03:21:53;;;;;;;;;;;4.00;99.90;;;;;;5090022;28;21803;-76
2024/01/13 03:24:19;;;;;;;;;;;3.80;99.90;;;;;;5080014;28;19931;-77
2024/01/13 03:26:44;;;;;;;;;;;3.80;99.90;;;;;;5085418;28;20008;-77
2024/01/13 03:29:10;;;;;;;;;;;3.80;99.90;;;;;;5084629;28;19927;-76
2024/01/13 03:31:36;;;;;;;;;;;3.80;99.90;;;;;;5084179;28;20320;-77
2024/01/13 03:34:03;;;;;;;;;;;3.90;99.90;;;;;;5082575;28;20230;-77
2024/01/13 03:36:29;;;;;;;;;;;3.90;99.90;;;;;;5084124;28;19973;-77
2024/01/13 03:38:56;;;;;;;;;;;3.80;99.90;;;;;;5078468;28;20014;-77
2024/01/13 03:41:22;;;;;;;;;;;3.80;99.90;;;;;;5082410;28;20010;-76
2024/01/13 03:43:49;;;;;;;;;;;3.80;99.90;;;;;;5066306;28;20049;-77
2024/01/13 03:46:15;;;;;;;;;;;3.80;99.90;;;;;;5083980;28;19931;-77
2024/01/13 03:48:41;;;;;;;;;;;3.80;99.90;;;;;;5099790;28;20410;-76
2024/01/13 03:51:07;;;;;;;;;;;3.80;99.90;;;;;;5099278;28;19971;-77
2024/01/13 03:53:33;;;;;;;;;;;3.80;99.90;;;;;;5064581;28;19930;-77
2024/01/13 03:56:05;;;;;;;;;;;3.80;99.90;;;;;;5103179;27;20243;-77
2024/01/13 03:58:30;;;;;;;;;;;3.80;99.90;;;;;;5100046;28;19982;-77
2024/01/13 04:00:56;;;;;;;;;;;3.80;99.90;;;;;;5082712;28;20321;-77
2024/01/13 04:03:21;;;;;;;;;;;3.80;99.90;;;;;;5056331;28;19928;-77
2024/01/13 04:05:47;;;;;;;;;;;3.80;99.90;;;;;;5022373;28;19928;-77
2024/01/13 04:08:13;;;;;;;;;;;3.80;99.90;;;;;;5026168;28;19932;-77
2024/01/13 04:10:38;;;;;;;;;;;3.80;99.90;;;;;;5057708;28;19978;-77
2024/01/13 04:13:09;;;;;;;;;;;2.20;99.90;;;;;;5056015;28;19932;-77
2024/01/13 04:15:34;;;;;;;;;;;3.90;99.90;;;;;;5055363;28;20044;-77
2024/01/13 04:18:00;;;;;;;;;;;3.60;99.90;;;;;;5057054;28;20018;-77
2024/01/13 04:20:26;;;;;;;;;;;3.60;99.90;;;;;;5024670;28;20444;-77
2024/01/13 04:22:57;;;;;;;;;;;3.70;99.90;;;;;;5040613;28;19981;-77
2024/01/13 04:25:23;;;;;;;;;;;4.00;99.90;;;;;;5039333;28;19936;-77
2024/01/13 04:27:50;;;;;;;;;;;3.70;99.90;;;;;;5035727;28;19931;-77
2024/01/13 04:30:15;;;;;;;;;;;4.00;99.90;;;;;;5056210;28;20688;-77
2024/01/13 04:32:42;;;;;;;;;;;3.60;99.90;;;;;;5056784;28;19932;-76
2024/01/13 04:35:08;;;;;;;;;;;3.60;99.90;;;;;;5090547;28;20347;-77
2024/01/13 04:37:34;;;;;;;;;;;3.60;99.90;;;;;;5081905;28;19924;-77
2024/01/13 04:39:59;;;;;;;;;;;3.60;99.90;;;;;;5083790;28;19975;-77
2024/01/13 04:42:25;;;;;;;;;;;3.70;99.90;;;;;;5083788;28;19923;-77
2024/01/13 04:44:50;;;;;;;;;;;4.00;99.90;;;;;;5085116;28;19931;-77
2024/01/13 04:47:16;;;;;;;;;;;3.70;99.90;;;;;;5079700;27;20489;-77
2024/01/13 04:49:42;;;;;;;;;;;3.70;99.90;;;;;;5083185;28;19938;-77
2024/01/13 04:52:07;;;;;;;;;;;3.70;99.90;;;;;;5083142;28;19928;-77
2024/01/13 04:54:33;;;;;;;;;;;3.70;99.90;;;;;;5083373;28;19927;-77
2024/01/13 04:57:00;;;;;;;;;;;3.70;99.90;;;;;;5066317;28;19927;-77
2024/01/13 04:59:33;;;;;;;;;;;4.20;99.90;;;;;;5054091;28;19932;-77
2024/01/13 05:02:01;;;;;;;;;;;3.70;99.90;;;;;;5081696;28;20097;-77
2024/01/13 05:04:28;;;;;;;;;;;3.70;99.90;;;;;;5064571;28;19969;-77
2024/01/13 05:06:54;;;;;;;;;;;3.70;99.90;;;;;;5066325;28;19928;-77
2024/01/13 05:09:20;;;;;;;;;;;3.70;99.90;;;;;;5067136;28;20068;-78
2024/01/13 05:11:46;;;;;;;;;;;4.20;99.90;;;;;;5082212;28;20022;-78
2024/01/13 05:14:11;;;;;;;;;;;3.80;99.90;;;;;;5083186;28;20060;-76
2024/01/13 05:16:38;;;;;;;;;;;3.80;99.90;;;;;;5084295;28;20583;-76
2024/01/13 05:19:04;;;;;;;;;;;3.70;99.90;;;;;;5086635;28;19924;-77
2024/01/13 05:21:30;;;;;;;;;;;3.70;99.90;;;;;;5072825;27;20405;-76
2024/01/13 05:23:55;;;;;;;;;;;3.70;99.90;;;;;;5105632;27;19939;-75
2024/01/13 05:26:21;;;;;;;;;;;3.70;99.90;;;;;;5083394;28;19928;-78
2024/01/13 05:28:47;;;;;;;;;;;3.60;99.90;;;;;;5090842;28;19928;-76
2024/01/13 05:31:16;;;;;;;;;;;3.60;99.90;;;;;;5106480;28;19934;-77
2024/01/13 05:33:41;;;;;;;;;;;3.60;99.90;;;;;;5088280;27;19932;-77
2024/01/13 05:36:10;;;;;;;;;;;3.70;99.90;;;;;;5104034;27;19920;-77
2024/01/13 05:38:35;;;;;;;;;;;4.40;99.90;;;;;;5088992;28;19961;-77
2024/01/13 05:41:01;;;;;;;;;;;3.60;99.90;;;;;;5087218;28;19928;-77
2024/01/13 05:43:27;;;;;;;;;;;3.60;99.90;;;;;;5071975;28;19981;-76
2024/01/13 05:45:52;;;;;;;;;;;3.80;99.90;;;;;;5106334;27;20362;-77
2024/01/13 05:48:19;;;;;;;;;;;4.00;99.90;;;;;;5088129;28;19928;-77
2024/01/13 05:50:45;;;;;;;;;;;3.70;99.90;;;;;;5087764;28;19932;-77
2024/01/13 05:53:11;;;;;;;;;;;3.70;99.90;;;;;;5084989;28;19939;-77
2024/01/13 05:55:37;;;;;;;;;;;4.20;99.90;;;;;;5071479;28;19928;-77
2024/01/13 05:58:03;;;;;;;;;;;3.70;99.90;;;;;;5085351;28;19935;-77
2024/01/13 06:00:29;;;;;;;;;;;3.70;99.90;;;;;;5088370;28;19978;-77
2024/01/13 06:02:56;;;;;;;;;;;3.70;99.90;;;;;;5084477;28;19970;-77
2024/01/13 06:05:22;;;;;;;;;;;3.70;99.90;;;;;;5069078;28;20007;-78
2024/01/13 06:07:50;;;;;;;;;;;3.70;99.90;;;;;;5086148;28;20010;-77
2024/01/13 06:10:19;;;;;;;;;;;3.90;99.90;;;;;;5086463;28;20022;-77
2024/01/13 06:12:45;;;;;;;;;;;3.70;99.90;;;;;;5101734;27;19928;-76
2024/01/13 06:15:11;;;;;;;;;;;3.60;99.90;;;;;;5086890;28;19924;-77
2024/01/13 06:17:37;;;;;;;;;;;4.10;99.90;;;;;;5070476;28;19927;-77
2024/01/13 06:20:03;;;;;;;;;;;3.70;99.90;;;;;;5088489;28;21168;-77
2024/01/13 06:22:28;;;;;;;;;;;3.70;99.90;;;;;;5086426;28;19928;-76
2024/01/13 06:24:54;;;;;;;;;;;3.70;99.90;;;;;;5086014;28;19928;-77
2024/01/13 06:27:20;;;;;;;;;;;3.70;99.90;;;;;;5086617;28;19931;-76
2024/01/13 06:29:46;;;;;;;;;;;3.60;99.90;;;;;;5085235;28;19950;-77
2024/01/13 06:32:12;;;;;;;;;;;3.70;99.90;;;;;;5102469;28;19957;-77
2024/01/13 06:34:44;;;;;;;;;;;3.60;99.90;;;;;;5082298;28;20023;-77
2024/01/13 06:37:09;;;;;;;;;;;3.60;99.90;;;;;;5084879;28;19971;-77
2024/01/13 06:39:35;;;;;;;;;;;3.70;99.90;;;;;;5084841;28;19927;-76
2024/01/13 06:42:06;;;;;;;;;;;3.70;99.90;;;;;;5084886;28;19989;-77
2024/01/13 06:44:34;;;;;;;;;;;4.20;99.90;;;;;;5067788;28;19924;-77
2024/01/13 06:47:03;;;;;;;;;;;3.70;99.90;;;;;;5050858;28;19939;-76
2024/01/13 06:49:29;;;;;;;;;;;3.70;99.90;;;;;;5084134;28;19930;-77
2024/01/13 06:51:54;;;;;;;;;;;3.70;99.90;;;;;;5103274;28;19928;-77
2024/01/13 06:54:20;;;;;;;;;;;4.10;99.90;;;;;;5083990;28;19980;-76
2024/01/13 06:56:47;;;;;;;;;;;3.60;99.90;;;;;;5083098;28;19928;-76
2024/01/13 06:59:12;;;;;;;;;;;3.80;99.90;;;;;;5068321;28;20000;-78
2024/01/13 07:01:38;;;;;;;;;;;3.70;99.90;;;;;;5065623;28;20359;-77
2024/01/13 07:04:09;;;;;;;;;;;3.70;99.90;;;;;;5085027;28;19950;-76
2024/01/13 07:06:36;;;;;;;;;;;3.70;99.90;;;;;;5081382;28;19928;-78
2024/01/13 07:09:02;;;;;;;;;;;3.70;99.90;;;;;;5080186;28;19931;-80
2024/01/13 07:11:31;;;;;;;;;;;3.70;99.90;;;;;;5098690;28;19931;-79
2024/01/13 07:13:57;;;;;;;;;;;3.70;99.90;;;;;;5083619;28;19924;-82
2024/01/13 07:16:22;;;;;;;;;;;3.70;99.90;;;;;;5083778;28;19935;-82
2024/01/13 07:18:48;;;;;;;;;;;3.80;99.90;;;;;;5082735;28;20355;-82
2024/01/13 07:21:15;;;;;;;;;;;3.70;99.90;;;;;;5082085;28;19931;-77
2024/01/13 07:23:41;;;;;;;;;;;3.70;99.90;;;;;;5083017;28;20022;-77
2024/01/13 07:26:07;;;;;;;;;;;3.70;99.90;;;;;;5083955;28;19932;-76
2024/01/13 07:28:38;;;;;;;;;;;4.00;99.90;;;;;;5000354;28;1866387;-77
2024/01/13 07:31:05;;;;;;;;;;;3.70;99.90;;;;;;5099521;27;20279;-77
2024/01/13 07:33:31;;;;;;;;;;;3.60;99.90;;;;;;5083632;28;19932;-77
2024/01/13 07:36:00;;;;;;;;;;;3.70;99.90;;;;;;5103924;27;19963;-77
2024/01/13 07:38:25;;;;;;;;;;;3.70;99.90;;;;;;5085260;27;20015;-76
2024/01/13 07:40:51;;;;;;;;;;;3.70;99.90;;;;;;5067108;28;20640;-77
2024/01/13 07:43:17;;;;;;;;;;;3.70;99.90;;;;;;5099236;27;19932;-77
2024/01/13 07:45:42;;;;;;;;;;;3.70;99.90;;;;;;5083475;28;19930;-79
2024/01/13 07:48:08;;;;;;;;;;;3.70;99.90;;;;;;5067922;28;20018;-77
2024/01/13 07:50:34;;;;;;;;;;;3.70;99.90;;;;;;5083595;28;19924;-76
2024/01/13 07:52:59;;;;;;;;;;;3.80;99.90;;;;;;5083501;28;19927;-76
2024/01/13 07:55:25;;;;;;;;;;;3.70;99.90;;;;;;5083594;28;20057;-76
2024/01/13 07:57:56;;;;;;;;;;;3.80;99.90;;;;;;5081659;28;19931;-76
2024/01/13 08:00:23;;;;;;;;;;;3.80;99.90;;;;;;5066605;28;19927;-77
2024/01/13 08:02:49;;;;;;;;;;;3.90;99.90;;;;;;5083414;28;19924;-77
2024/01/13 08:05:15;;;;;;;;;;;3.80;99.90;;;;;;5083096;28;19981;-78
2024/01/13 08:07:41;;;;;;;;;;;3.70;99.90;;;;;;5049058;28;19923;-76
2024/01/13 08:10:07;;;;;;;;;;;3.80;99.90;;;;;;5083277;28;20368;-77
2024/01/13 08:12:33;;;;;;;;;;;3.90;99.90;;;;;;5049500;28;19934;-76
2024/01/13 08:14:58;;;;;;;;;;;3.80;99.90;;;;;;5083917;28;20274;-76
2024/01/13 08:17:25;;;;;;;;;;;3.80;99.90;;;;;;5085016;28;19967;-76
2024/01/13 08:19:50;;;;;;;;;;;3.90;99.90;;;;;;5101004;27;20362;-77
2024/01/13 08:22:16;;;;;;;;;;;3.90;99.90;;;;;;5067740;28;19936;-77
2024/01/13 08:24:42;;;;;;;;;;;3.80;99.90;;;;;;5084745;28;19928;-76
2024/01/13 08:27:07;;;;;;;;;;;3.80;99.90;;;;;;5050961;28;20416;-75
2024/01/13 08:29:33;;;;;;;;;;;3.80;99.90;;;;;;5061316;28;19934;-76
2024/01/13 08:31:59;;;;;;;;;;;3.80;99.90;;;;;;5103652;27;20340;-76
2024/01/13 08:34:24;;;;;;;;;;;3.90;99.90;;;;;;5084256;28;19926;-76
2024/01/13 08:36:50;;;;;;;;;;;3.90;99.90;;;;;;5085086;28;19923;-76
2024/01/13 08:39:16;;;;;;;;;;;4.50;99.90;;;;;;5103768;28;19935;-76
2024/01/13 08:41:41;;;;;;;;;;;3.90;99.90;;;;;;5070282;28;19930;-76
2024/01/13 08:44:07;;;;;;;;;;;4.00;99.90;;;;;;5086083;28;19935;-76
2024/01/13 08:46:33;;;;;;;;;;;3.90;99.90;;;;;;5084227;28;19982;-76
2024/01/13 08:48:58;;;;;;;;;;;3.90;99.90;;;;;;5100452;28;19938;-76
2024/01/13 08:51:24;;;;;;;;;;;4.00;99.90;;;;;;5083803;28;20447;-76
2024/01/13 08:53:49;;;;;;;;;;;4.40;99.90;;;;;;5082722;28;19938;-73
2024/01/13 08:56:15;;;;;;;;;;;4.00;99.90;;;;;;5103855;28;19931;-76
2024/01/13 08:58:41;;;;;;;;;;;4.00;99.90;;;;;;5083895;27;19927;-75
2024/01/13 09:01:07;;;;;;;;;;;4.00;99.90;;;;;;5082414;28;19924;-75
2024/01/13 09:03:32;;;;;;;;;;;4.10;99.90;;;;;;5084328;28;19924;-76
2024/01/13 09:05:59;;;;;;;;;;;4.00;99.90;;;;;;5081226;28;19928;-74
2024/01/13 09:08:24;;;;;;;;;;;4.10;99.90;;;;;;5067401;28;19927;-73
2024/01/13 09:10:50;;;;;;;;;;;4.00;99.90;;;;;;5084104;28;19934;-75
2024/01/13 09:13:16;;;;;;;;;;;4.70;99.90;;;;;;5063269;28;20358;-79
2024/01/13 09:15:41;;;;;;;;;;;4.10;99.90;;;;;;5066730;28;19927;-79
2024/01/13 09:18:08;;;;;;;;;;;4.00;99.90;;;;;;5066443;28;19935;-79
2024/01/13 09:20:34;;;;;;;;;;;4.10;99.90;;;;;;5082193;28;19928;-78
2024/01/13 09:23:00;;;;;;;;;;;4.00;99.90;;;;;;5080197;28;19938;-78
2024/01/13 09:25:25;;;;;;;;;;;4.00;99.90;;;;;;5083363;28;19924;-80
2024/01/13 09:27:56;;;;;;;;;;;4.00;99.90;;;;;;5089819;28;19932;-79
2024/01/13 09:30:22;;;;;;;;;;;4.00;99.90;;;;;;5090351;28;19934;-80
2024/01/13 09:32:51;;;;;;;;;;;4.00;99.90;;;;;;5102152;28;19931;-81
2024/01/13 09:35:16;;;;;;;;;;;4.10;99.90;;;;;;5070979;28;20381;-80
2024/01/13 09:37:42;;;;;;;;;;;4.00;99.90;;;;;;5071406;28;19934;-79
2024/01/13 09:40:08;;;;;;;;;;;4.10;99.90;;;;;;5102451;28;20691;-79
2024/01/13 09:43:04;;;;;;;;;;;4.00;99.90;;;;;;5065761;28;19931;-78
2024/01/13 09:45:31;;;;;;;;;;;4.10;99.90;;;;;;5083906;28;19967;-79
2024/01/13 09:47:58;;;;;;;;;;;4.30;99.90;;;;;;5068696;28;19924;-79
2024/01/13 09:50:25;;;;;;;;;;;4.10;99.90;;;;;;5086180;28;19928;-78
2024/01/13 09:52:51;;;;;;;;;;;4.10;99.90;;;;;;5085577;28;19932;-79
2024/01/13 09:55:18;;;;;;;;;;;4.70;99.90;;;;;;5085519;28;19930;-80
2024/01/13 09:57:45;;;;;;;;;;;4.10;99.90;;;;;;5087488;28;19977;-78
2024/01/13 10:00:12;;;;;;;;;;;4.00;99.90;;;;;;5087268;28;19924;-77
2024/01/13 10:02:39;;;;;;;;;;;4.10;99.90;;;;;;5100958;28;19978;-77
2024/01/13 10:05:04;;;;;;;;;;;4.10;99.90;;;;;;5081396;28;19934;-76
2024/01/13 10:07:33;;;;;;;;;;;4.20;99.90;;;;;;5086354;28;19932;-85
2024/01/13 10:09:59;;;;;;;;;;;4.20;99.90;;;;;;5089069;28;19939;-76
2024/01/13 10:12:25;;;;;;;;;;;4.30;99.90;;;;;;5107143;28;20012;-76
2024/01/13 10:14:51;;;;;;;;;;;4.40;99.90;;;;;;5070061;28;19932;-77
2024/01/13 10:17:16;;;;;;;;;;;4.30;99.90;;;;;;5071363;28;19927;-76
2024/01/13 10:19:42;;;;;;;;;;;4.30;99.90;;;;;;5089490;28;20031;-76
2024/01/13 10:22:08;;;;;;;;;;;4.40;99.90;;;;;;5070788;27;19978;-76
2024/01/13 10:24:34;;;;;;;;;;;4.40;99.90;;;;;;5087030;28;19958;-77
2024/01/13 10:27:00;;;;;;;;;;;4.50;99.90;;;;;;5071526;28;19931;-76
2024/01/13 10:29:26;;;;;;;;;;;4.40;99.90;;;;;;5088938;27;19938;-76
2024/01/13 10:31:53;;;;;;;;;;;4.70;99.90;;;;;;5088412;28;19971;-78
2024/01/13 10:34:19;;;;;;;;;;;4.50;99.90;;;;;;5088645;28;19953;-76
2024/01/13 10:36:44;;;;;;;;;;;4.60;99.90;;;;;;5072092;28;19934;-76
2024/01/13 10:39:10;;;;;;;;;;;4.60;99.90;;;;;;5100343;27;20396;-77
2024/01/13 10:41:38;;;;;;;;;;;4.70;99.90;;;;;;5101672;27;20701;-76
2024/01/13 10:44:07;;;;;;;;;;;4.80;99.90;;;;;;5083350;28;19924;-76
2024/01/13 10:46:33;;;;;;;;;;;4.80;99.90;;;;;;5106296;27;19929;-74
2024/01/13 10:49:02;;;;;;;;;;;4.80;99.90;;;;;;5085234;27;19927;-76
2024/01/13 10:51:36;;;;;;;;;;;4.90;99.90;;;;;;5086558;27;20034;-76
2024/01/13 10:54:03;;;;;;;;;;;4.80;99.90;;;;;;5066487;28;20034;-75
2024/01/13 10:56:29;;;;;;;;;;;4.80;99.90;;;;;;5070601;28;19935;-80
2024/01/13 10:58:58;;;;;;;;;;;4.90;99.90;;;;;;5071597;28;19924;-80
2024/01/13 11:01:24;;;;;;;;;;;4.90;99.90;;;;;;5069514;28;19932;-79
2024/01/13 11:03:50;;;;;;;;;;;4.90;99.90;;;;;;5070407;27;20375;-80
2024/01/13 11:06:22;;;;;;;;;;;4.90;99.90;;;;;;5084687;28;19992;-79
2024/01/13 11:08:48;;;;;;;;;;;4.90;99.90;;;;;;5083322;28;20643;-79
2024/01/13 11:11:18;;;;;;;;;;;4.80;99.90;;;;;;5101282;27;19924;-79
2024/01/13 11:13:46;;;;;;;;;;;4.90;99.90;;;;;;5082942;27;20260;-80
2024/01/13 11:16:13;;;;;;;;;;;4.80;99.90;;;;;;5086227;28;19932;-80
2024/01/13 11:18:45;;;;;;;;;;;4.90;99.90;;;;;;5070677;28;19969;-80
2024/01/13 11:21:11;;;;;;;;;;;4.90;99.90;;;;;;5085092;28;20332;-79
2024/01/13 11:23:56;;;;;;;;;;;4.90;99.90;;;;;;5101339;27;19927;-82
2024/01/13 11:26:27;;;;;;;;;;;5.00;99.90;;;;;;5083289;28;19928;-80
2024/01/13 11:28:54;;;;;;;;;;;5.00;99.90;;;;;;5100764;27;20374;-79
2024/01/13 11:31:39;;;;;;;;;;;5.10;99.90;;;;;;5103812;27;20317;-79
2024/01/13 11:34:05;;;;;;;;;;;5.20;99.90;;;;;;5067433;28;19934;-80
2024/01/13 11:36:35;;;;;;;;;;;5.10;99.90;;;;;;5084211;28;20023;-78
2024/01/13 11:39:01;;;;;;;;;;;5.20;99.90;;;;;;5097058;28;20023;-79
2024/01/13 11:41:44;;;;;;;;;;;5.30;99.90;;;;;;5103290;27;19927;-77
2024/01/13 11:44:10;;;;;;;;;;;5.20;99.90;;;;;;5083589;27;19924;-76
2024/01/13 11:46:38;;;;;;;;;;;5.20;99.90;;;;;;5067936;28;19931;-76
2024/01/13 11:49:04;;;;;;;;;;;5.30;99.90;;;;;;5067245;27;19928;-76
2024/01/13 11:51:48;;;;;;;;;;;5.30;99.90;;;;;;5084458;27;19932;-75
2024/01/13 11:54:14;;;;;;;;;;;5.30;99.90;;;;;;5083695;27;19928;-75
2024/01/13 11:56:42;;;;;;;;;;;5.20;99.90;;;;;;5083252;28;19924;-75
2024/01/13 11:59:08;;;;;;;;;;;5.20;99.90;;;;;;5084718;28;19974;-75
2024/01/13 12:01:35;;;;;;;;;;;4.60;99.90;;;;;;5084908;28;20002;-77
2024/01/13 12:04:01;;;;;;;;;;;5.10;99.90;;;;;;5084353;28;19963;-79
2024/01/13 12:06:26;;;;;;;;;;;5.10;99.90;;;;;;5097935;27;20657;-76
2024/01/13 12:08:54;;;;;;;;;;;5.10;99.90;;;;;;5079145;28;20278;-76
2024/01/13 12:11:19;;;;;;;;;;;5.10;99.90;;;;;;5068796;28;20006;-76
2024/01/13 12:13:45;;;;;;;;;;;5.10;99.90;;;;;;5086040;28;20342;-77
2024/01/13 12:16:10;;;;;;;;;;;5.10;99.90;;;;;;5082085;28;19923;-76
2024/01/13 12:18:36;;;;;;;;;;;5.10;99.90;;;;;;5087309;28;20342;-76
2024/01/13 12:21:02;;;;;;;;;;;5.20;99.90;;;;;;5069520;28;19927;-76
2024/01/13 12:23:28;;;;;;;;;;;5.20;99.90;;;;;;5079167;28;19934;-76
2024/01/13 12:25:54;;;;;;;;;;;5.30;99.90;;;;;;5107121;28;20010;-77
2024/01/13 12:28:20;;;;;;;;;;;5.30;99.90;;;;;;5086586;28;19928;-76
2024/01/13 12:30:48;;;;;;;;;;;5.20;99.90;;;;;;5089036;28;19930;-76
2024/01/13 12:33:16;;;;;;;;;;;5.20;99.90;;;;;;5106036;28;20018;-77
2024/01/13 12:35:41;;;;;;;;;;;3.90;99.90;;;;;;5090545;28;19924;-76
2024/01/13 12:38:07;;;;;;;;;;;5.20;99.90;;;;;;5088849;28;19942;-77
2024/01/13 12:40:33;;;;;;;;;;;5.20;99.90;;;;;;5087017;28;19932;-76
2024/01/13 12:42:59;;;;;;;;;;;5.20;99.90;;;;;;5087763;28;20497;-77
2024/01/13 12:45:28;;;;;;;;;;;5.30;99.90;;;;;;5089713;28;19971;-76
2024/01/13 12:47:54;;;;;;;;;;;5.30;99.90;;;;;;5072541;28;19976;-76
2024/01/13 12:50:21;;;;;;;;;;;5.40;99.90;;;;;;5070877;28;19997;-76
2024/01/13 12:52:46;;;;;;;;;;;5.40;99.90;;;;;;5088132;28;20461;-75
2024/01/13 12:55:12;;;;;;;;;;;5.40;99.90;;;;;;5107209;28;19924;-75
2024/01/13 12:57:39;;;;;;;;;;;5.50;99.90;;;;;;5088561;28;20324;-75
2024/01/13 13:00:06;;;;;;;;;;;5.50;99.90;;;;;;5103079;28;19972;-75
2024/01/13 13:02:33;;;;;;;;;;;5.50;99.90;;;;;;5070878;28;19938;-75
2024/01/13 13:04:58;;;;;;;;;;;5.50;99.90;;;;;;5088893;28;20395;-76
2024/01/13 13:07:27;;;;;;;;;;;5.40;99.90;;;;;;5085804;28;19927;-76
2024/01/13 13:09:52;;;;;;;;;;;5.40;99.90;;;;;;5069213;28;19927;-77
2024/01/13 13:12:21;;;;;;;;;;;5.40;99.90;;;;;;5087379;28;20026;-76
2024/01/13 13:14:47;;;;;;;;;;;5.30;99.90;;;;;;5088879;28;19966;-76
2024/01/13 13:17:13;;;;;;;;;;;5.40;99.90;;;;;;5087196;28;19963;-76
2024/01/13 13:19:39;;;;;;;;;;;5.50;99.90;;;;;;5106624;28;19928;-75
2024/01/13 13:22:04;;;;;;;;;;;5.60;99.90;;;;;;5088161;28;19927;-77
2024/01/13 13:24:31;;;;;;;;;;;5.70;99.90;;;;;;5067833;28;20442;-76
2024/01/13 13:26:58;;;;;;;;;;;5.80;99.90;;;;;;5085377;28;19924;-76
2024/01/13 13:29:24;;;;;;;;;;;5.80;99.90;;;;;;5078920;28;19939;-76
2024/01/13 13:31:50;;;;;;;;;;;5.90;99.90;;;;;;5105938;28;20035;-76
2024/01/13 13:34:16;;;;;;;;;;;5.80;99.90;;;;;;5085130;28;19963;-76
2024/01/13 13:36:42;;;;;;;;;;;5.80;99.90;;;;;;5085359;28;19943;-77
2024/01/13 13:39:07;;;;;;;;;;;5.90;99.90;;;;;;5068393;28;20384;-76
2024/01/13 13:41:33;;;;;;;;;;;5.80;99.90;;;;;;5090914;28;20656;-77
2024/01/13 13:43:58;;;;;;;;;;;5.80;99.90;;;;;;5109941;28;19934;-77
2024/01/13 13:46:24;;;;;;;;;;;5.80;99.90;;;;;;5090230;28;19928;-76
2024/01/13 13:48:50;;;;;;;;;;;5.80;99.90;;;;;;5056445;28;19938;-76
2024/01/13 13:51:15;;;;;;;;;;;5.80;99.90;;;;;;5074867;28;19928;-77
2024/01/13 13:53:42;;;;;;;;;;;5.90;99.90;;;;;;5106117;28;19935;-75
2024/01/13 13:56:07;;;;;;;;;;;5.90;99.90;;;;;;5072178;28;20045;-77
2024/01/13 13:58:33;;;;;;;;;;;5.90;99.90;;;;;;5090744;28;20018;-76
2024/01/13 14:00:59;;;;;;;;;;;6.00;99.90;;;;;;5074541;28;19985;-76
2024/01/13 14:03:24;;;;;;;;;;;5.90;99.90;;;;;;5092568;28;20833;-76
2024/01/13 14:05:50;;;;;;;;;;;6.00;99.90;;;;;;5075383;28;20503;-77
2024/01/13 14:08:19;;;;;;;;;;;5.90;99.90;;;;;;5109053;28;20286;-76
2024/01/13 14:10:44;;;;;;;;;;;5.90;99.90;;;;;;5091669;28;19924;-76
2024/01/13 14:13:10;;;;;;;;;;;5.90;99.90;;;;;;5105777;28;19927;-76
2024/01/13 14:15:36;;;;;;;;;;;5.80;99.90;;;;;;5075318;28;19927;-77
2024/01/13 14:18:03;;;;;;;;;;;5.80;99.90;;;;;;5087235;28;20363;-77
2024/01/13 14:20:29;;;;;;;;;;;5.80;99.90;;;;;;5075086;28;19928;-77
2024/01/13 14:22:55;;;;;;;;;;;5.90;99.90;;;;;;5090679;28;19931;-77
2024/01/13 14:25:21;;;;;;;;;;;5.80;99.90;;;;;;5089906;28;20397;-77
2024/01/13 14:27:47;;;;;;;;;;;5.80;99.90;;;;;;5073314;28;19927;-77